sensor_id;sensor_type;location;lat;lon;timestamp;pressure;altitude;pressure_sealevel;temperature;humidity
34674;BME280;20879;55.668;37.858;2024-01-15T00:05:12;97778.38;;;-9.89;88.87
34674;BME280;20879;55.668;37.858;2024-01-15T00:10:31;97767.81;;;-9.80;89.00
34674;BME280;20879;55.668;37.858;2024-01-15T00:15:41;97769.72;;;-9.73;88.83
34674;BME280;20879;55.668;37.858;2024-01-15T00:20:51;97759.16;;;-9.64;89.27
34674;BME280;20879;55.668;37.858;2024-01-15T00:26:04;97752.53;;;-9.62;88.96
34674;BME280;20879;55.668;37.858;2024-01-15T00:31:14;97750.16;;;-9.59;89.06
34674;BME280;20879;55.668;37.858;2024-01-15T00:36:20;97772.63;;;-9.60;89.47
34674;BME280;20879;55.668;37.858;2024-01-15T00:41:32;97741.13;;;-9.54;89.53
34674;BME280;20879;55.668;37.858;2024-01-15T00:46:49;97736.94;;;-9.53;89.38
34674;BME280;20879;55.668;37.858;2024-01-15T00:51:57;97728.41;;;-9.60;89.29
34674;BME280;20879;55.668;37.858;2024-01-15T00:57:13;97731.75;;;-9.59;90.13
34674;BME280;20879;55.668;37.858;2024-01-15T01:02:19;97733.50;;;-9.57;90.37
34674;BME280;20879;55.668;37.858;2024-01-15T01:07:25;97731.28;;;-9.48;89.74
34674;BME280;20879;55.668;37.858;2024-01-15T01:12:31;97714.56;;;-9.49;89.89
34674;BME280;20879;55.668;37.858;2024-01-15T01:17:39;97716.06;;;-9.54;90.28
34674;BME280;20879;55.668;37.858;2024-01-15T01:22:54;97716.00;;;-9.55;90.42
34674;BME280;20879;55.668;37.858;2024-01-15T01:28:09;97706.00;;;-9.55;90.44
34674;BME280;20879;55.668;37.858;2024-01-15T01:33:15;97694.22;;;-9.58;90.83
34674;BME280;20879;55.668;37.858;2024-01-15T01:38:26;97692.75;;;-9.51;90.79
34674;BME280;20879;55.668;37.858;2024-01-15T01:43:33;97681.34;;;-9.41;90.89
34674;BME280;20879;55.668;37.858;2024-01-15T01:48:52;97673.34;;;-9.31;90.93
34674;BME280;20879;55.668;37.858;2024-01-15T01:54:09;97689.53;;;-9.20;91.19
34674;BME280;20879;55.668;37.858;2024-01-15T01:59:21;97682.38;;;-9.07;90.89
34674;BME280;20879;55.668;37.858;2024-01-15T02:04:30;97670.41;;;-8.87;90.97
34674;BME280;20879;55.668;37.858;2024-01-15T02:09:37;97664.69;;;-8.83;90.98
34674;BME280;20879;55.668;37.858;2024-01-15T02:14:45;97659.75;;;-8.80;90.95
34674;BME280;20879;55.668;37.858;2024-01-15T02:19:51;97660.81;;;-8.72;90.88
34674;BME280;20879;55.668;37.858;2024-01-15T02:24:59;97662.72;;;-8.63;90.98
34674;BME280;20879;55.668;37.858;2024-01-15T02:30:12;97652.81;;;-8.58;91.33
34674;BME280;20879;55.668;37.858;2024-01-15T02:35:17;97667.59;;;-8.37;91.41
34674;BME280;20879;55.668;37.858;2024-01-15T02:40:24;97660.28;;;-8.28;91.02
34674;BME280;20879;55.668;37.858;2024-01-15T02:45:30;97649.59;;;-8.21;91.11
34674;BME280;20879;55.668;37.858;2024-01-15T02:50:42;97644.84;;;-8.10;91.10
34674;BME280;20879;55.668;37.858;2024-01-15T02:55:49;97647.63;;;-7.99;91.33
34674;BME280;20879;55.668;37.858;2024-01-15T03:00:54;97645.22;;;-7.95;90.84
34674;BME280;20879;55.668;37.858;2024-01-15T03:06:01;97638.59;;;-7.91;91.11
34674;BME280;20879;55.668;37.858;2024-01-15T03:11:08;97637.88;;;-7.87;91.39
34674;BME280;20879;55.668;37.858;2024-01-15T03:16:13;97632.09;;;-7.84;91.51
34674;BME280;20879;55.668;37.858;2024-01-15T03:21:21;97635.63;;;-7.75;91.40
34674;BME280;20879;55.668;37.858;2024-01-15T03:26:37;97618.91;;;-7.74;91.50
34674;BME280;20879;55.668;37.858;2024-01-15T03:31:42;97619.72;;;-7.75;91.42
34674;BME280;20879;55.668;37.858;2024-01-15T03:36:48;97614.06;;;-7.66;91.86
34674;BME280;20879;55.668;37.858;2024-01-15T03:41:57;97621.75;;;-7.60;91.72
34674;BME280;20879;55.668;37.858;2024-01-15T03:47:03;97610.88;;;-7.59;91.76
34674;BME280;20879;55.668;37.858;2024-01-15T03:52:15;97612.72;;;-7.52;91.49
34674;BME280;20879;55.668;37.858;2024-01-15T03:57:32;97617.81;;;-7.49;91.60
34674;BME280;20879;55.668;37.858;2024-01-15T04:02:37;97609.59;;;-7.42;92.00
34674;BME280;20879;55.668;37.858;2024-01-15T04:07:52;97601.38;;;-7.34;92.00
34674;BME280;20879;55.668;37.858;2024-01-15T04:13:02;97598.06;;;-7.33;91.99
34674;BME280;20879;55.668;37.858;2024-01-15T04:18:09;97594.91;;;-7.23;91.68
34674;BME280;20879;55.668;37.858;2024-01-15T04:23:14;97594.97;;;-7.20;92.27
34674;BME280;20879;55.668;37.858;2024-01-15T04:28:35;97581.63;;;-7.16;92.42
34674;BME280;20879;55.668;37.858;2024-01-15T04:33:40;97599.44;;;-7.07;92.41
34674;BME280;20879;55.668;37.858;2024-01-15T04:38:45;97600.19;;;-7.11;92.42
34674;BME280;20879;55.668;37.858;2024-01-15T04:43:55;97581.63;;;-7.16;92.48
34674;BME280;20879;55.668;37.858;2024-01-15T04:48:59;97589.31;;;-7.10;92.82
34674;BME280;20879;55.668;37.858;2024-01-15T04:54:05;97594.44;;;-7.05;92.49
34674;BME280;20879;55.668;37.858;2024-01-15T04:59:27;97596.13;;;-7.06;92.80
34674;BME280;20879;55.668;37.858;2024-01-15T05:04:31;97583.59;;;-7.03;93.02
34674;BME280;20879;55.668;37.858;2024-01-15T05:09:40;97578.56;;;-7.03;93.22
34674;BME280;20879;55.668;37.858;2024-01-15T05:14:52;97571.03;;;-7.01;93.44
34674;BME280;20879;55.668;37.858;2024-01-15T05:19:57;97568.50;;;-7.03;93.72
34674;BME280;20879;55.668;37.858;2024-01-15T05:25:05;97572.03;;;-6.93;93.85
34674;BME280;20879;55.668;37.858;2024-01-15T05:30:16;97576.22;;;-6.93;93.70
34674;BME280;20879;55.668;37.858;2024-01-15T05:35:21;97576.19;;;-6.95;93.78
34674;BME280;20879;55.668;37.858;2024-01-15T05:40:26;97572.91;;;-6.92;94.25
34674;BME280;20879;55.668;37.858;2024-01-15T05:45:34;97576.34;;;-6.87;94.55
34674;BME280;20879;55.668;37.858;2024-01-15T05:50:41;97581.41;;;-6.84;94.64
34674;BME280;20879;55.668;37.858;2024-01-15T05:55:46;97552.84;;;-6.88;94.68
34674;BME280;20879;55.668;37.858;2024-01-15T06:00:53;97585.94;;;-6.68;95.08
34674;BME280;20879;55.668;37.858;2024-01-15T06:05:59;97554.78;;;-6.74;94.92
34674;BME280;20879;55.668;37.858;2024-01-15T06:11:08;97581.22;;;-6.51;94.93
34674;BME280;20879;55.668;37.858;2024-01-15T06:16:16;97581.34;;;-6.43;96.20
34674;BME280;20879;55.668;37.858;2024-01-15T06:21:24;97567.13;;;-6.41;96.42
34674;BME280;20879;55.668;37.858;2024-01-15T06:26:35;97576.56;;;-6.29;96.45
34674;BME280;20879;55.668;37.858;2024-01-15T06:31:43;97578.44;;;-6.17;96.63
34674;BME280;20879;55.668;37.858;2024-01-15T06:36:50;97582.78;;;-6.08;96.41
34674;BME280;20879;55.668;37.858;2024-01-15T06:41:57;97579.56;;;-6.00;95.98
34674;BME280;20879;55.668;37.858;2024-01-15T06:47:03;97587.16;;;-5.95;96.16
34674;BME280;20879;55.668;37.858;2024-01-15T06:52:08;97580.69;;;-5.79;96.81
34674;BME280;20879;55.668;37.858;2024-01-15T06:57:15;97587.66;;;-5.63;96.40
34674;BME280;20879;55.668;37.858;2024-01-15T07:02:31;97581.03;;;-5.56;97.30
34674;BME280;20879;55.668;37.858;2024-01-15T07:07:36;97577.88;;;-5.41;97.35
34674;BME280;20879;55.668;37.858;2024-01-15T07:12:41;97571.34;;;-5.27;96.64
34674;BME280;20879;55.668;37.858;2024-01-15T07:17:50;97580.75;;;-5.15;97.07
34674;BME280;20879;55.668;37.858;2024-01-15T07:22:56;97585.00;;;-5.12;96.38
34674;BME280;20879;55.668;37.858;2024-01-15T07:28:08;97580.81;;;-5.09;97.08
34674;BME280;20879;55.668;37.858;2024-01-15T07:33:17;97570.19;;;-4.84;97.49
34674;BME280;20879;55.668;37.858;2024-01-15T07:38:27;97572.91;;;-4.64;96.89
34674;BME280;20879;55.668;37.858;2024-01-15T07:43:32;97562.72;;;-4.74;96.92
34674;BME280;20879;55.668;37.858;2024-01-15T07:48:44;97570.44;;;-4.60;97.14
34674;BME280;20879;55.668;37.858;2024-01-15T07:53:55;97567.09;;;-4.56;96.73
34674;BME280;20879;55.668;37.858;2024-01-15T07:59:00;97568.84;;;-4.48;96.36
34674;BME280;20879;55.668;37.858;2024-01-15T08:04:09;97568.81;;;-4.54;97.38
34674;BME280;20879;55.668;37.858;2024-01-15T08:09:17;97559.72;;;-4.37;97.66
34674;BME280;20879;55.668;37.858;2024-01-15T08:14:27;97564.13;;;-4.14;97.43
34674;BME280;20879;55.668;37.858;2024-01-15T08:19:36;97561.72;;;-4.02;97.10
34674;BME280;20879;55.668;37.858;2024-01-15T08:24:49;97559.94;;;-4.11;96.95
34674;BME280;20879;55.668;37.858;2024-01-15T08:29:55;97561.47;;;-4.31;96.80
34674;BME280;20879;55.668;37.858;2024-01-15T08:35:02;97566.56;;;-4.25;97.13
34674;BME280;20879;55.668;37.858;2024-01-15T08:40:10;97551.34;;;-4.31;97.56
34674;BME280;20879;55.668;37.858;2024-01-15T08:45:24;97574.19;;;-4.17;97.27
34674;BME280;20879;55.668;37.858;2024-01-15T08:50:35;97568.38;;;-4.09;97.01
34674;BME280;20879;55.668;37.858;2024-01-15T08:55:41;97573.41;;;-4.12;97.40
34674;BME280;20879;55.668;37.858;2024-01-15T09:00:54;97572.56;;;-4.15;97.79
34674;BME280;20879;55.668;37.858;2024-01-15T09:06:02;97570.91;;;-4.07;97.04
34674;BME280;20879;55.668;37.858;2024-01-15T09:11:09;97567.63;;;-3.97;97.63
34674;BME280;20879;55.668;37.858;2024-01-15T09:16:19;97566.81;;;-3.96;97.50
34674;BME280;20879;55.668;37.858;2024-01-15T09:21:34;97568.53;;;-3.93;97.37
34674;BME280;20879;55.668;37.858;2024-01-15T09:26:39;97547.44;;;-3.95;97.85
34674;BME280;20879;55.668;37.858;2024-01-15T09:31:48;97559.53;;;-3.56;97.91
34674;BME280;20879;55.668;37.858;2024-01-15T09:37:04;97559.69;;;-3.28;97.41
34674;BME280;20879;55.668;37.858;2024-01-15T09:42:15;97557.31;;;-2.88;96.96
34674;BME280;20879;55.668;37.858;2024-01-15T09:47:29;97549.81;;;-2.54;97.12
34674;BME280;20879;55.668;37.858;2024-01-15T09:52:51;97567.59;;;-2.29;96.24
34674;BME280;20879;55.668;37.858;2024-01-15T09:58:00;97559.94;;;-2.46;95.70
34674;BME280;20879;55.668;37.858;2024-01-15T10:03:05;97549.81;;;-2.63;96.04
34674;BME280;20879;55.668;37.858;2024-01-15T10:08:26;97571.72;;;-2.74;96.10
34674;BME280;20879;55.668;37.858;2024-01-15T10:13:33;97564.09;;;-2.79;96.00
34674;BME280;20879;55.668;37.858;2024-01-15T10:18:48;97572.53;;;-2.86;95.95
34674;BME280;20879;55.668;37.858;2024-01-15T10:23:56;97573.31;;;-2.95;95.88
34674;BME280;20879;55.668;37.858;2024-01-15T10:29:01;97559.81;;;-2.97;96.33
34674;BME280;20879;55.668;37.858;2024-01-15T10:34:16;97565.75;;;-2.86;96.45
34674;BME280;20879;55.668;37.858;2024-01-15T10:39:30;97550.56;;;-2.89;96.53
34674;BME280;20879;55.668;37.858;2024-01-15T10:44:39;97568.34;;;-2.81;96.03
34674;BME280;20879;55.668;37.858;2024-01-15T10:49:46;97558.22;;;-2.76;96.27
34674;BME280;20879;55.668;37.858;2024-01-15T10:54:58;97553.97;;;-2.77;95.99
34674;BME280;20879;55.668;37.858;2024-01-15T11:00:18;97555.59;;;-2.98;96.50
34674;BME280;20879;55.668;37.858;2024-01-15T11:05:23;97559.78;;;-3.02;96.64
34674;BME280;20879;55.668;37.858;2024-01-15T11:10:42;97553.06;;;-2.95;96.60
34674;BME280;20879;55.668;37.858;2024-01-15T11:16:03;97547.16;;;-2.94;96.85
34674;BME280;20879;55.668;37.858;2024-01-15T11:21:24;97542.97;;;-2.86;96.80
34674;BME280;20879;55.668;37.858;2024-01-15T11:26:34;97536.25;;;-2.81;95.88
34674;BME280;20879;55.668;37.858;2024-01-15T11:32:00;97495.69;;;-2.88;95.85
34674;BME280;20879;55.668;37.858;2024-01-15T11:37:12;97543.88;;;-2.65;95.39
34674;BME280;20879;55.668;37.858;2024-01-15T11:42:26;97536.31;;;-2.60;95.76
34674;BME280;20879;55.668;37.858;2024-01-15T11:53:28;97522.75;;;-2.79;95.86
34674;BME280;20879;55.668;37.858;2024-01-15T11:58:46;97533.72;;;-2.71;95.76
34674;BME280;20879;55.668;37.858;2024-01-15T12:03:52;97546.38;;;-2.74;95.12
34674;BME280;20879;55.668;37.858;2024-01-15T12:09:06;97542.94;;;-2.89;95.86
34674;BME280;20879;55.668;37.858;2024-01-15T12:14:12;97542.94;;;-2.92;96.07
34674;BME280;20879;55.668;37.858;2024-01-15T12:19:18;97547.19;;;-2.92;95.70
34674;BME280;20879;55.668;37.858;2024-01-15T12:24:32;97541.22;;;-2.96;95.95
34674;BME280;20879;55.668;37.858;2024-01-15T12:29:45;97541.22;;;-3.01;96.28
34674;BME280;20879;55.668;37.858;2024-01-15T12:34:49;97547.13;;;-3.02;96.31
34674;BME280;20879;55.668;37.858;2024-01-15T12:49:00;97548.69;;;-3.31;95.66
34674;BME280;20879;55.668;37.858;2024-01-15T12:54:13;97545.34;;;-3.27;96.46
34674;BME280;20879;55.668;37.858;2024-01-15T12:59:24;97531.00;;;-3.21;96.80
34674;BME280;20879;55.668;37.858;2024-01-15T13:04:36;97543.72;;;-3.16;96.95
34674;BME280;20879;55.668;37.858;2024-01-15T13:09:41;97552.94;;;-3.21;97.14
34674;BME280;20879;55.668;37.858;2024-01-15T13:14:51;97550.44;;;-3.13;97.36
34674;BME280;20879;55.668;37.858;2024-01-15T13:20:04;97532.69;;;-3.27;97.24
34674;BME280;20879;55.668;37.858;2024-01-15T13:25:08;97557.19;;;-3.22;96.77
34674;BME280;20879;55.668;37.858;2024-01-15T13:30:13;97560.56;;;-3.20;97.50
34674;BME280;20879;55.668;37.858;2024-01-15T13:35:28;97559.72;;;-3.19;97.75
34674;BME280;20879;55.668;37.858;2024-01-15T13:40:33;97559.72;;;-3.22;97.68
34674;BME280;20879;55.668;37.858;2024-01-15T13:45:43;97560.56;;;-3.20;97.66
34674;BME280;20879;55.668;37.858;2024-01-15T13:50:50;97568.16;;;-3.20;97.75
34674;BME280;20879;55.668;37.858;2024-01-15T13:56:00;97564.78;;;-3.19;97.43
34674;BME280;20879;55.668;37.858;2024-01-15T14:01:05;97558.91;;;-3.13;97.40
34674;BME280;20879;55.668;37.858;2024-01-15T14:06:13;97555.47;;;-3.21;97.54
34674;BME280;20879;55.668;37.858;2024-01-15T14:11:18;97566.53;;;-3.08;98.04
34674;BME280;20879;55.668;37.858;2024-01-15T14:16:25;97569.06;;;-3.07;97.97
34674;BME280;20879;55.668;37.858;2024-01-15T14:21:37;97565.69;;;-3.04;98.08
34674;BME280;20879;55.668;37.858;2024-01-15T14:26:47;97562.28;;;-3.09;97.63
34674;BME280;20879;55.668;37.858;2024-01-15T14:31:59;97535.22;;;-3.23;97.46
34674;BME280;20879;55.668;37.858;2024-01-15T14:37:07;97546.25;;;-3.11;97.94
34674;BME280;20879;55.668;37.858;2024-01-15T14:42:17;97546.19;;;-3.24;97.99
34674;BME280;20879;55.668;37.858;2024-01-15T14:47:21;97547.91;;;-3.20;97.99
34674;BME280;20879;55.668;37.858;2024-01-15T14:52:34;97536.06;;;-3.22;98.44
34674;BME280;20879;55.668;37.858;2024-01-15T14:57:45;97541.97;;;-3.26;98.22
34674;BME280;20879;55.668;37.858;2024-01-15T15:02:57;97544.50;;;-3.28;98.37
34674;BME280;20879;55.668;37.858;2024-01-15T15:08:04;97544.50;;;-3.25;98.35
34674;BME280;20879;55.668;37.858;2024-01-15T15:13:22;97548.69;;;-3.27;98.53
34674;BME280;20879;55.668;37.858;2024-01-15T15:18:46;97539.38;;;-3.34;98.71
34674;BME280;20879;55.668;37.858;2024-01-15T15:24:02;97542.78;;;-3.32;99.23
34674;BME280;20879;55.668;37.858;2024-01-15T15:29:11;97548.69;;;-3.31;99.04
34674;BME280;20879;55.668;37.858;2024-01-15T15:34:24;97532.66;;;-3.34;99.22
34674;BME280;20879;55.668;37.858;2024-01-15T15:39:32;97542.00;;;-3.20;99.15
34674;BME280;20879;55.668;37.858;2024-01-15T15:44:50;97546.22;;;-3.18;99.68
34674;BME280;20879;55.668;37.858;2024-01-15T15:50:06;97538.63;;;-3.18;99.63
34674;BME280;20879;55.668;37.858;2024-01-15T15:55:17;97539.47;;;-3.17;99.54
34674;BME280;20879;55.668;37.858;2024-01-15T16:00:22;97542.84;;;-3.12;99.32
34674;BME280;20879;55.668;37.858;2024-01-15T16:05:35;97540.38;;;-3.10;99.44
34674;BME280;20879;55.668;37.858;2024-01-15T16:11:01;97539.50;;;-3.12;99.20
34674;BME280;20879;55.668;37.858;2024-01-15T16:16:06;97539.50;;;-3.12;99.70
34674;BME280;20879;55.668;37.858;2024-01-15T16:21:37;97526.81;;;-3.16;99.39
34674;BME280;20879;55.668;37.858;2024-01-15T16:27:07;97526.00;;;-3.13;99.46
34674;BME280;20879;55.668;37.858;2024-01-15T16:32:15;97531.91;;;-3.11;99.71
34674;BME280;20879;55.668;37.858;2024-01-15T16:37:20;97519.22;;;-3.17;99.53
34674;BME280;20879;55.668;37.858;2024-01-15T16:42:27;97520.91;;;-3.18;99.47
34674;BME280;20879;55.668;37.858;2024-01-15T16:47:37;97493.81;;;-3.37;99.99
34674;BME280;20879;55.668;37.858;2024-01-15T16:52:42;97506.53;;;-3.25;99.46
34674;BME280;20879;55.668;37.858;2024-01-15T16:57:51;97513.25;;;-3.27;100.00
34674;BME280;20879;55.668;37.858;2024-01-15T17:03:04;97510.72;;;-3.30;99.71
34674;BME280;20879;55.668;37.858;2024-01-15T17:08:14;97509.03;;;-3.31;99.69
34674;BME280;20879;55.668;37.858;2024-01-15T17:13:22;97500.59;;;-3.35;100.00
34674;BME280;20879;55.668;37.858;2024-01-15T17:18:36;97500.59;;;-3.33;100.00
34674;BME280;20879;55.668;37.858;2024-01-15T17:23:46;97498.88;;;-3.37;100.00
34674;BME280;20879;55.668;37.858;2024-01-15T17:28:58;97509.00;;;-3.36;100.00
34674;BME280;20879;55.668;37.858;2024-01-15T17:34:13;97502.28;;;-3.38;100.00
34674;BME280;20879;55.668;37.858;2024-01-15T17:39:17;97487.88;;;-3.47;100.00
34674;BME280;20879;55.668;37.858;2024-01-15T17:44:24;97498.03;;;-3.39;100.00
34674;BME280;20879;55.668;37.858;2024-01-15T17:49:32;97500.56;;;-3.42;100.00
34674;BME280;20879;55.668;37.858;2024-01-15T17:54:38;97495.50;;;-3.41;100.00
34674;BME280;20879;55.668;37.858;2024-01-15T17:59:53;97497.22;;;-3.35;100.00
34674;BME280;20879;55.668;37.858;2024-01-15T18:05:00;97490.47;;;-3.36;100.00
34674;BME280;20879;55.668;37.858;2024-01-15T18:10:12;97487.94;;;-3.30;100.00
34674;BME280;20879;55.668;37.858;2024-01-15T18:15:19;97482.03;;;-3.34;100.00
34674;BME280;20879;55.668;37.858;2024-01-15T18:20:25;97477.78;;;-3.41;100.00
34674;BME280;20879;55.668;37.858;2024-01-15T18:25:30;97480.34;;;-3.33;100.00
34674;BME280;20879;55.668;37.858;2024-01-15T18:30:56;97468.56;;;-3.28;100.00
34674;BME280;20879;55.668;37.858;2024-01-15T18:36:09;97465.16;;;-3.33;100.00
34674;BME280;20879;55.668;37.858;2024-01-15T18:41:20;97460.94;;;-3.34;100.00
34674;BME280;20879;55.668;37.858;2024-01-15T18:46:34;97463.50;;;-3.28;100.00
34674;BME280;20879;55.668;37.858;2024-01-15T18:51:45;97461.81;;;-3.27;100.00
34674;BME280;20879;55.668;37.858;2024-01-15T18:56:58;97447.47;;;-3.27;100.00
34674;BME280;20879;55.668;37.858;2024-01-15T19:02:12;97440.69;;;-3.31;100.00
34674;BME280;20879;55.668;37.858;2024-01-15T19:07:21;97436.50;;;-3.29;100.00
34674;BME280;20879;55.668;37.858;2024-01-15T19:12:33;97428.09;;;-3.26;100.00
34674;BME280;20879;55.668;37.858;2024-01-15T19:17:48;97433.97;;;-3.21;100.00
34674;BME280;20879;55.668;37.858;2024-01-15T19:22:58;97429.75;;;-3.21;100.00
34674;BME280;20879;55.668;37.858;2024-01-15T19:28:15;97416.28;;;-3.20;100.00
34674;BME280;20879;55.668;37.858;2024-01-15T19:33:24;97425.56;;;-3.12;100.00
34674;BME280;20879;55.668;37.858;2024-01-15T19:38:33;97405.31;;;-3.19;100.00
34674;BME280;20879;55.668;37.858;2024-01-15T19:43:52;97407.84;;;-3.06;100.00
34674;BME280;20879;55.668;37.858;2024-01-15T19:49:00;97410.41;;;-3.00;100.00
34674;BME280;20879;55.668;37.858;2024-01-15T19:54:11;97387.59;;;-3.11;100.00
34674;BME280;20879;55.668;37.858;2024-01-15T19:59:16;97398.59;;;-2.96;100.00
34674;BME280;20879;55.668;37.858;2024-01-15T20:04:28;97391.00;;;-2.95;100.00
34674;BME280;20879;55.668;37.858;2024-01-15T20:09:47;97374.97;;;-3.00;100.00
34674;BME280;20879;55.668;37.858;2024-01-15T20:14:53;97383.41;;;-2.89;100.00
34674;BME280;20879;55.668;37.858;2024-01-15T20:20:10;97386.81;;;-2.90;100.00
34674;BME280;20879;55.668;37.858;2024-01-15T20:25:16;97381.75;;;-2.87;100.00
34674;BME280;20879;55.668;37.858;2024-01-15T20:30:21;97385.09;;;-2.89;100.00
34674;BME280;20879;55.668;37.858;2024-01-15T20:35:33;97396.06;;;-2.86;100.00
34674;BME280;20879;55.668;37.858;2024-01-15T20:40:38;97393.53;;;-2.84;100.00
34674;BME280;20879;55.668;37.858;2024-01-15T20:45:43;97375.81;;;-2.89;100.00
34674;BME280;20879;55.668;37.858;2024-01-15T20:50:50;97376.66;;;-2.87;100.00
34674;BME280;20879;55.668;37.858;2024-01-15T20:56:04;97385.09;;;-2.82;100.00
34674;BME280;20879;55.668;37.858;2024-01-15T21:01:17;97390.16;;;-2.78;100.00
34674;BME280;20879;55.668;37.858;2024-01-15T21:06:24;97389.31;;;-2.73;100.00
34674;BME280;20879;55.668;37.858;2024-01-15T21:11:35;97391.84;;;-2.65;100.00
34674;BME280;20879;55.668;37.858;2024-01-15T21:16:45;97384.25;;;-2.65;100.00
34674;BME280;20879;55.668;37.858;2024-01-15T21:21:55;97383.41;;;-2.69;100.00
34674;BME280;20879;55.668;37.858;2024-01-15T21:27:05;97363.16;;;-2.81;100.00
34674;BME280;20879;55.668;37.858;2024-01-15T21:32:11;97388.47;;;-2.61;100.00
34674;BME280;20879;55.668;37.858;2024-01-15T21:37:27;97372.44;;;-2.60;100.00
34674;BME280;20879;55.668;37.858;2024-01-15T21:42:33;97373.28;;;-2.56;100.00
34674;BME280;20879;55.668;37.858;2024-01-15T21:47:46;97371.59;;;-2.53;100.00
34674;BME280;20879;55.668;37.858;2024-01-15T21:52:55;97382.59;;;-2.44;100.00
34674;BME280;20879;55.668;37.858;2024-01-15T21:58:00;97379.19;;;-2.40;100.00
34674;BME280;20879;55.668;37.858;2024-01-15T22:03:05;97351.34;;;-2.57;100.00
34674;BME280;20879;55.668;37.858;2024-01-15T22:08:11;97385.09;;;-2.38;100.00
34674;BME280;20879;55.668;37.858;2024-01-15T22:13:21;97369.88;;;-2.35;100.00
34674;BME280;20879;55.668;37.858;2024-01-15T22:18:30;97378.34;;;-2.41;100.00
34674;BME280;20879;55.668;37.858;2024-01-15T22:23:40;97369.91;;;-2.40;100.00
34674;BME280;20879;55.668;37.858;2024-01-15T22:28:48;97374.09;;;-2.39;100.00
34674;BME280;20879;55.668;37.858;2024-01-15T22:33:55;97369.03;;;-2.31;100.00
34674;BME280;20879;55.668;37.858;2024-01-15T22:39:03;97360.59;;;-2.36;100.00
34674;BME280;20879;55.668;37.858;2024-01-15T22:44:09;97369.88;;;-2.28;100.00
34674;BME280;20879;55.668;37.858;2024-01-15T22:49:13;97372.41;;;-2.26;100.00
34674;BME280;20879;55.668;37.858;2024-01-15T22:54:32;97374.94;;;-2.24;100.00
34674;BME280;20879;55.668;37.858;2024-01-15T22:59:46;97361.44;;;-2.37;100.00
34674;BME280;20879;55.668;37.858;2024-01-15T23:04:52;97362.28;;;-2.32;100.00
34674;BME280;20879;55.668;37.858;2024-01-15T23:09:59;97367.31;;;-2.24;100.00
34674;BME280;20879;55.668;37.858;2024-01-15T23:15:14;97363.97;;;-2.25;100.00
34674;BME280;20879;55.668;37.858;2024-01-15T23:20:19;97363.94;;;-2.23;100.00
34674;BME280;20879;55.668;37.858;2024-01-15T23:25:31;97347.88;;;-2.27;100.00
34674;BME280;20879;55.668;37.858;2024-01-15T23:30:49;97366.47;;;-2.20;100.00
34674;BME280;20879;55.668;37.858;2024-01-15T23:35:54;97330.16;;;-2.36;100.00
34674;BME280;20879;55.668;37.858;2024-01-15T23:41:05;97349.59;;;-2.28;100.00
34674;BME280;20879;55.668;37.858;2024-01-15T23:46:18;97375.78;;;-2.24;100.00
34674;BME280;20879;55.668;37.858;2024-01-15T23:51:24;97380.84;;;-2.29;100.00
34674;BME280;20879;55.668;37.858;2024-01-15T23:56:32;97371.59;;;-2.31;100.00
